.
Local / Fort Wayne - NE Ind.

U N D E R   C O N S T R U C T I O N

Local Weather
Fort Wayne – NE Indiana

Northern Indiana (IWX) Radar

Latest IWX NEXRAD
Base Reflectivity



Latest IWX NEXRAD
Base Velocity

Indiana-Ohio Visible Satellite

For infrared and water vapor imagery, see Great Lakes - Midwest.

Current Conditions

Recent report from the Fort Wayne International Airport

Jun 18, 2019 - 02:54 PM EDT / 2019.06.18 1854 UTC


The skies are partly cloudy. The temperature is 80.1 F (26.7 C) and the dew point is 61.0 F (16.1 C), giving a relative humidity of 52%. The barometric pressure is 29.92 in. Hg (1013 hPa). The wind is Variable at 3 MPH (3 KT), and the visibility is 10 mile(s).

KFWA 181854Z VRB03KT 10SM FEW037 SCT055 27/16 A2992 RMK AO2 SLP127 T02670161

Local Weather — Contents

Local Weather — Links

CoCoRaHS
IN-AL-39
A2 Web Hosting
Creative Commons License
GoDaddy
search engine by freefind advanced

loaded 2019-06-18 15:20:17 • last modified 2017-02-11 13:27:36
Privacy PolicyDisclaimer
• wx.awcolley.com is powered by PmWiki v.2002016 •
• all content (unless otherwise noted) © 2019 A W Colley